Time;durP1;ratioP1;P1;durP2;ratioP2;P2;SDS_P1;SDS_P2;PMS_P1;PMS_P2;Temp;Humidity;BMP_temperature;BMP_pressure;BME280_temperature;BME280_humidity;BME280_pressure;Samples;Min_cycle;Max_cycle;Signal;HPM_P1;HPM_P2
2023/08/31 00:01:39;;;;;;;7.13;6.50;;;;;;;15.50;69.95;95676.94;5065438;28;20174;-69
2023/08/31 00:04:05;;;;;;;6.60;6.00;;;;;;;15.48;69.46;95684.13;5066314;28;20444;-69
2023/08/31 00:06:31;;;;;;;6.43;5.90;;;;;;;15.53;69.73;95684.63;5065712;28;20659;-68
2023/08/31 00:08:56;;;;;;;5.90;5.40;;;;;;;15.58;69.70;95684.28;5064480;28;20503;-70
2023/08/31 00:11:22;;;;;;;6.47;5.70;;;;;;;15.56;69.73;95691.47;5066368;28;20265;-68
2023/08/31 00:13:47;;;;;;;7.73;5.17;;;;;;;15.56;70.17;95679.09;5066225;28;20678;-70
2023/08/31 00:16:13;;;;;;;6.10;5.60;;;;;;;15.56;70.64;95684.38;5066617;28;20313;-69
2023/08/31 00:18:38;;;;;;;6.10;5.50;;;;;;;15.55;70.51;95684.53;5066863;28;20249;-71
2023/08/31 00:21:04;;;;;;;7.17;5.63;;;;;;;15.56;70.79;95683.56;5067157;28;20178;-70
2023/08/31 00:23:29;;;;;;;6.40;5.80;;;;;;;15.56;70.52;95686.19;5066696;28;20170;-68
2023/08/31 00:25:57;;;;;;;6.27;5.70;;;;;;;15.39;71.56;95693.59;5067065;28;20166;-68
2023/08/31 00:28:23;;;;;;;6.53;5.53;;;;;;;15.32;71.41;95695.00;5066703;28;20261;-69
2023/08/31 00:30:48;;;;;;;7.03;5.90;;;;;;;15.41;71.52;95704.06;5066548;28;21046;-67
2023/08/31 00:33:15;;;;;;;7.33;5.10;;;;;;;15.37;71.67;95702.59;5066183;28;20178;-71
2023/08/31 00:35:46;;;;;;;6.17;5.57;;;;;;;15.33;71.77;95704.63;5066464;28;20242;-68
2023/08/31 00:38:13;;;;;;;5.17;4.73;;;;;;;15.36;71.54;95701.75;5066332;28;20905;-71
2023/08/31 00:40:45;;;;;;;6.60;5.53;;;;;;;15.30;72.63;95704.00;5066338;28;20415;-70
2023/08/31 00:43:10;;;;;;;5.83;5.30;;;;;;;15.22;73.05;95704.56;5065778;28;20419;-69
2023/08/31 00:45:40;;;;;;;12.03;5.10;;;;;;;15.30;73.19;95698.72;5066335;28;20436;-68
2023/08/31 00:48:05;;;;;;;5.87;5.40;;;;;;;15.33;73.74;95704.63;5066758;28;20657;-69
2023/08/31 00:50:31;;;;;;;5.20;4.70;;;;;;;15.38;73.46;95706.94;5066722;28;20413;-70
2023/08/31 00:52:56;;;;;;;9.33;4.27;;;;;;;15.44;72.68;95711.75;5066405;28;20316;-68
2023/08/31 00:55:23;;;;;;;5.10;3.50;;;;;;;15.43;72.53;95713.56;5066362;28;20214;-71
2023/08/31 00:57:48;;;;;;;8.37;3.73;;;;;;;15.48;71.83;95725.59;5066718;28;20182;-66
2023/08/31 01:00:14;;;;;;;4.33;3.03;;;;;;;15.43;71.74;95723.31;5066728;28;20769;-68
2023/08/31 01:03:03;;;;;;;4.87;3.50;;;;;;;15.45;72.12;95730.16;5066575;28;20178;-67
2023/08/31 01:05:48;;;;;;;6.23;2.80;;;;;;;15.44;71.74;95739.03;5065998;28;20460;-69
2023/08/31 01:08:33;;;;;;;5.10;3.47;;;;;;;15.32;72.40;95729.38;5065596;28;20425;-68
2023/08/31 01:11:13;;;;;;;3.53;3.23;;;;;;;15.36;72.66;95735.28;5066012;28;20412;-70
2023/08/31 01:13:41;;;;;;;5.73;3.87;;;;;;;15.39;72.41;95727.13;5065594;28;20420;-69
2023/08/31 01:16:08;;;;;;;4.40;3.53;;;;;;;15.26;73.01;95724.56;5065986;28;20468;-70
2023/08/31 01:18:37;;;;;;;4.00;3.60;;;;;;;15.12;73.24;95719.41;5066044;28;20499;-69
2023/08/31 01:21:17;;;;;;;3.40;3.10;;;;;;;15.13;73.08;95716.66;5068726;28;21020;-69
2023/08/31 01:23:53;;;;;;;4.00;3.03;;;;;;;15.00;72.81;95711.44;5069671;28;20497;-69
2023/08/31 01:29:40;;;;;;;3.60;3.30;;;;;;;15.15;72.78;95716.56;5077974;28;20919;-70
2023/08/31 01:32:07;;;;;;;5.37;2.50;;;;;;;15.20;72.76;95709.97;5090300;28;20407;-68
2023/08/31 01:34:33;;;;;;;4.47;3.07;;;;;;;15.18;72.92;95716.31;5089922;28;20884;-71
2023/08/31 01:37:03;;;;;;;5.73;3.43;;;;;;;15.27;72.32;95710.38;5090027;28;20463;-70
2023/08/31 01:39:45;;;;;;;6.73;3.40;;;;;;;15.25;72.24;95709.63;5089957;28;20978;-70
2023/08/31 01:42:13;;;;;;;4.90;2.93;;;;;;;15.24;71.59;95707.97;5090364;28;20410;-68
2023/08/31 01:44:39;;;;;;;6.90;3.20;;;;;;;15.27;70.93;95715.66;5089907;28;20450;-69
2023/08/31 01:47:06;;;;;;;3.80;2.90;;;;;;;15.24;69.43;95715.88;5089766;28;20411;-71
2023/08/31 01:49:40;;;;;;;5.07;2.77;;;;;;;15.27;68.56;95728.88;5089989;28;20423;-67
2023/08/31 01:52:07;;;;;;;4.10;2.67;;;;;;;15.19;68.45;95725.97;5089576;28;20421;-69
2023/08/31 01:54:33;;;;;;;6.00;3.17;;;;;;;15.18;68.66;95721.59;5089337;28;21012;-69
2023/08/31 01:56:58;;;;;;;8.13;3.43;;;;;;;15.13;68.00;95721.09;5089498;28;20462;-68
2023/08/31 01:59:24;;;;;;;3.20;2.20;;;;;;;15.12;68.06;95725.56;5090735;28;20750;-70
2023/08/31 02:01:49;;;;;;;4.83;2.90;;;;;;;15.15;67.69;95724.47;5090718;28;20166;-70
2023/08/31 02:04:14;;;;;;;7.00;3.43;;;;;;;15.10;68.20;95730.09;5090633;28;20185;-67
2023/08/31 02:06:40;;;;;;;7.47;2.50;;;;;;;15.08;68.04;95732.00;5090795;28;20166;-69
2023/08/31 02:09:06;;;;;;;3.50;3.00;;;;;;;14.99;68.94;95736.16;5090074;28;20178;-70
2023/08/31 02:11:32;;;;;;;5.23;2.77;;;;;;;15.08;68.42;95734.66;5089764;28;20174;-69
2023/08/31 02:13:58;;;;;;;6.40;3.60;;;;;;;15.02;67.68;95735.94;5088792;28;20486;-70
2023/08/31 02:16:23;;;;;;;6.77;2.90;;;;;;;15.04;68.10;95738.47;5089299;28;20205;-72
2023/08/31 02:18:49;;;;;;;3.63;2.37;;;;;;;14.97;67.88;95737.22;5089244;28;20465;-69
2023/08/31 02:21:15;;;;;;;5.83;2.50;;;;;;;14.97;68.08;95734.56;5089140;28;20169;-69
2023/08/31 02:23:40;;;;;;;5.67;2.80;;;;;;;14.89;68.60;95744.88;5088850;28;20655;-69
2023/08/31 02:26:05;;;;;;;4.13;3.27;;;;;;;14.94;69.00;95753.31;5089043;28;20166;-68
2023/08/31 02:28:31;;;;;;;8.70;3.40;;;;;;;14.79;69.19;95764.00;5088918;28;20240;-69
2023/08/31 02:31:01;;;;;;;8.60;3.00;;;;;;;14.82;69.39;95762.94;5069699;28;20206;-69
2023/08/31 02:33:27;;;;;;;5.17;2.87;;;;;;;14.81;69.36;95759.47;5067882;28;20269;-70
2023/08/31 02:35:54;;;;;;;4.43;2.63;;;;;;;14.85;69.14;95749.50;5079980;28;20459;-72
2023/08/31 02:38:20;;;;;;;4.63;2.70;;;;;;;14.78;69.58;95754.38;5084365;28;20171;-68
2023/08/31 02:40:48;;;;;;;6.13;2.70;;;;;;;14.77;69.57;95760.63;5069414;28;20405;-67
2023/08/31 02:43:14;;;;;;;7.73;2.97;;;;;;;14.80;69.59;95756.91;5068112;28;20170;-68
2023/08/31 02:45:40;;;;;;;2.50;2.30;;;;;;;14.76;69.85;95766.00;5068320;28;20423;-68
2023/08/31 02:48:07;;;;;;;5.23;2.83;;;;;;;14.68;70.25;95760.44;5068494;28;20169;-68
2023/08/31 02:50:34;;;;;;;4.30;2.60;;;;;;;14.76;70.33;95761.59;5068247;28;20162;-70
2023/08/31 02:52:59;;;;;;;4.00;3.17;;;;;;;14.77;70.60;95759.78;5068034;28;20458;-68
2023/08/31 02:55:25;;;;;;;8.47;2.87;;;;;;;14.65;70.87;95763.31;5067899;28;20494;-67
2023/08/31 02:57:50;;;;;;;8.33;3.40;;;;;;;14.71;70.99;95774.25;5068061;28;20166;-69
2023/08/31 03:00:16;;;;;;;3.00;2.67;;;;;;;14.73;70.84;95772.34;5068170;28;20609;-66
2023/08/31 03:02:43;;;;;;;8.67;3.53;;;;;;;14.66;71.05;95776.38;5068024;28;20184;-69
2023/08/31 03:05:08;;;;;;;6.40;3.13;;;;;;;14.64;71.51;95772.16;5068028;28;20760;-71
2023/08/31 03:07:34;;;;;;;4.80;3.00;;;;;;;14.63;71.19;95765.19;5068484;28;20408;-67
2023/08/31 03:09:59;;;;;;;4.53;3.20;;;;;;;14.58;71.48;95773.44;5068561;28;20162;-68
2023/08/31 03:12:25;;;;;;;5.87;2.83;;;;;;;14.64;71.51;95757.16;5068024;28;20602;-70
2023/08/31 03:14:50;;;;;;;4.43;3.20;;;;;;;14.50;72.07;95754.59;5067347;28;20202;-67
2023/08/31 03:17:15;;;;;;;3.57;2.60;;;;;;;14.50;72.33;95767.81;5067791;28;20193;-69
2023/08/31 03:19:41;;;;;;;4.30;3.10;;;;;;;14.44;72.48;95762.97;5067463;28;20178;-67
2023/08/31 03:22:06;;;;;;;3.90;2.70;;;;;;;14.46;72.29;95779.56;5067450;28;20163;-68
2023/08/31 03:24:34;;;;;;;4.70;2.93;;;;;;;14.45;72.40;95778.69;5067329;28;20988;-70
2023/08/31 03:27:00;;;;;;;3.97;2.83;;;;;;;14.42;72.49;95783.34;5067594;28;20200;-68
2023/08/31 03:29:25;;;;;;;4.50;3.00;;;;;;;14.36;72.69;95787.22;5074056;28;20427;-71
2023/08/31 03:31:51;;;;;;;3.80;3.27;;;;;;;14.32;73.20;95783.13;5087304;28;20180;-66
2023/08/31 03:34:16;;;;;;;3.20;2.70;;;;;;;14.28;73.34;95776.38;5087071;28;20217;-68
2023/08/31 03:36:41;;;;;;;3.70;2.80;;;;;;;14.27;73.48;95780.81;5087401;28;20197;-68
2023/08/31 03:39:07;;;;;;;3.80;3.00;;;;;;;14.28;73.52;95769.28;5087704;28;20641;-68
2023/08/31 03:41:32;;;;;;;3.97;3.00;;;;;;;14.30;73.84;95775.31;5087864;28;20226;-70
2023/08/31 03:43:58;;;;;;;3.80;3.20;;;;;;;14.33;73.62;95777.72;5087627;28;20185;-70
2023/08/31 03:46:24;;;;;;;4.43;3.17;;;;;;;14.31;73.64;95771.72;5087860;28;20230;-68
2023/08/31 03:48:49;;;;;;;8.33;3.47;;;;;;;14.26;73.92;95783.53;5087833;28;20715;-67
2023/08/31 03:51:15;;;;;;;4.40;3.27;;;;;;;14.25;73.95;95785.34;5087315;28;20259;-69
2023/08/31 03:53:40;;;;;;;8.00;3.53;;;;;;;14.12;74.45;95774.75;5086935;28;20189;-69
2023/08/31 03:56:06;;;;;;;6.20;3.00;;;;;;;14.16;74.33;95780.69;5087096;28;20575;-69
2023/08/31 03:58:31;;;;;;;5.60;3.33;;;;;;;14.10;74.56;95787.25;5087077;28;20204;-68
2023/08/31 04:00:56;;;;;;;5.20;2.63;;;;;;;14.14;74.32;95801.91;5086994;28;20251;-69
2023/08/31 04:03:22;;;;;;;7.40;3.47;;;;;;;14.17;74.37;95809.63;5086597;28;20665;-69
2023/08/31 04:05:47;;;;;;;5.57;3.37;;;;;;;14.18;74.29;95808.66;5087160;28;20169;-72
2023/08/31 04:08:13;;;;;;;4.57;3.13;;;;;;;14.23;74.43;95818.06;5087007;28;20180;-69
2023/08/31 04:10:38;;;;;;;8.53;4.27;;;;;;;14.13;74.80;95812.56;5087636;28;20169;-70
2023/08/31 04:13:04;;;;;;;16.47;3.70;;;;;;;14.19;75.00;95823.53;5092558;28;20181;-70
2023/08/31 04:15:30;;;;;;;8.77;3.73;;;;;;;14.21;74.90;95822.59;5092094;28;20205;-70
2023/08/31 04:17:56;;;;;;;4.30;2.87;;;;;;;14.19;75.08;95823.53;5090805;28;20173;-69
2023/08/31 04:20:22;;;;;;;4.97;3.20;;;;;;;14.17;75.06;95830.75;5090823;28;20479;-69
2023/08/31 04:22:47;;;;;;;6.20;3.57;;;;;;;14.23;74.84;95826.00;5086878;28;20222;-71
2023/08/31 04:25:13;;;;;;;18.17;4.07;;;;;;;14.29;74.84;95825.56;5086529;28;20189;-70
2023/08/31 04:27:41;;;;;;;23.90;5.13;;;;;;;14.31;74.60;95828.94;5086793;28;20170;-70
2023/08/31 04:30:07;;;;;;;30.90;7.47;;;;;;;14.33;74.63;95827.03;5074044;28;20174;-69
2023/08/31 04:32:33;;;;;;;12.63;4.23;;;;;;;14.43;74.65;95817.53;5063469;28;20828;-70
2023/08/31 04:34:58;;;;;;;7.97;3.17;;;;;;;14.34;74.24;95821.66;5063192;28;20479;-68
2023/08/31 04:37:24;;;;;;;5.20;3.80;;;;;;;14.36;74.48;95842.66;5064755;28;20272;-72
2023/08/31 04:39:49;;;;;;;10.70;3.90;;;;;;;14.33;74.48;95838.44;5065854;28;20178;-69
2023/08/31 04:42:16;;;;;;;5.67;3.67;;;;;;;14.29;74.47;95839.63;5064449;28;20760;-70
2023/08/31 04:44:42;;;;;;;7.77;3.90;;;;;;;14.30;74.76;95848.38;5063307;28;20194;-74
2023/08/31 04:47:08;;;;;;;6.00;4.13;;;;;;;14.30;74.69;95846.56;5058464;28;20413;-70
2023/08/31 04:49:33;;;;;;;5.90;3.73;;;;;;;14.30;74.59;95851.00;5044880;28;20189;-72
2023/08/31 04:51:58;;;;;;;5.23;3.60;;;;;;;14.29;74.39;95844.91;5063819;28;20195;-68
2023/08/31 04:54:25;;;;;;;3.93;3.47;;;;;;;14.26;74.44;95846.88;5063363;28;20201;-72
2023/08/31 04:56:50;;;;;;;5.10;4.60;;;;;;;14.32;74.51;95851.75;5067655;28;20219;-68
2023/08/31 04:59:16;;;;;;;5.67;3.40;;;;;;;14.37;74.29;95849.66;5067174;28;20420;-70
2023/08/31 05:01:41;;;;;;;6.57;3.07;;;;;;;14.39;74.38;95837.19;5067186;28;20169;-70
2023/08/31 05:04:06;;;;;;;7.90;3.80;;;;;;;14.42;74.38;95829.06;5066539;28;20890;-74
2023/08/31 05:06:32;;;;;;;10.50;4.00;;;;;;;14.46;74.11;95835.81;5066970;28;20261;-72
2023/08/31 05:08:57;;;;;;;9.50;4.67;;;;;;;14.56;73.61;95847.47;5067377;28;20651;-70
2023/08/31 05:11:23;;;;;;;13.70;4.10;;;;;;;14.53;73.43;95849.47;5068852;28;20170;-72
2023/08/31 05:13:49;;;;;;;10.53;3.60;;;;;;;14.51;73.36;95857.47;5068450;28;20197;-71
2023/08/31 05:16:14;;;;;;;10.93;3.97;;;;;;;14.51;73.77;95846.91;5074238;28;20225;-71
2023/08/31 05:18:40;;;;;;;22.00;4.40;;;;;;;14.52;74.19;95853.88;5072410;28;20208;-71
2023/08/31 05:21:05;;;;;;;10.40;4.33;;;;;;;14.61;73.59;95845.34;5079055;28;20174;-69
2023/08/31 05:23:31;;;;;;;11.37;4.27;;;;;;;14.50;74.13;95866.31;5059091;28;20446;-70
2023/08/31 05:25:57;;;;;;;19.50;4.93;;;;;;;14.54;73.93;95862.56;5068115;28;20714;-73
2023/08/31 05:28:23;;;;;;;8.80;3.67;;;;;;;14.51;74.33;95870.69;5071819;28;20171;-71
2023/08/31 05:30:50;;;;;;;11.83;4.03;;;;;;;14.49;73.71;95859.38;5071677;28;20169;-67
2023/08/31 05:33:16;;;;;;;26.97;5.40;;;;;;;14.54;73.80;95862.56;5064860;28;20248;-69
2023/08/31 05:35:42;;;;;;;13.53;4.30;;;;;;;14.55;73.36;95861.63;5067965;28;20490;-68
2023/08/31 05:38:07;;;;;;;10.57;4.63;;;;;;;14.66;72.80;95870.59;5065052;28;20801;-71
2023/08/31 05:40:33;;;;;;;12.43;3.40;;;;;;;14.76;72.26;95864.59;5073872;28;20235;-70
2023/08/31 05:42:58;;;;;;;7.50;3.53;;;;;;;14.88;71.91;95876.13;5071262;28;20178;-69
2023/08/31 05:45:23;;;;;;;8.43;4.13;;;;;;;15.50;69.78;95871.78;5069209;28;20251;-70
2023/08/31 05:47:49;;;;;;;9.43;3.37;;;;;;;15.38;70.03;95857.63;5064691;28;20188;-71
2023/08/31 05:50:14;;;;;;;5.50;3.47;;;;;;;15.09;70.92;95857.03;5071847;28;20203;-70
2023/08/31 05:52:43;;;;;;;13.10;5.33;;;;;;;14.90;71.64;95858.34;5067845;28;20265;-68
2023/08/31 05:55:09;;;;;;;8.77;3.10;;;;;;;14.97;71.23;95864.03;5065771;28;20246;-72
2023/08/31 05:57:35;;;;;;;5.53;3.07;;;;;;;16.23;67.14;95862.91;5072841;28;20420;-70
2023/08/31 06:00:00;;;;;;;4.87;3.50;;;;;;;17.05;64.02;95866.31;5066553;28;20929;-70
2023/08/31 06:02:26;;;;;;;4.63;3.63;;;;;;;17.47;62.59;95866.56;5067199;28;20182;-71
2023/08/31 06:04:51;;;;;;;5.50;3.50;;;;;;;18.02;60.94;95868.38;5066761;28;20224;-68
2023/08/31 06:07:17;;;;;;;12.33;4.63;;;;;;;18.39;59.76;95874.16;5065570;28;20894;-72
2023/08/31 06:09:42;;;;;;;6.83;4.23;;;;;;;18.77;58.63;95876.25;5066415;28;20170;-72
2023/08/31 06:12:07;;;;;;;9.87;4.10;;;;;;;19.12;57.51;95882.19;5066666;28;20527;-71
2023/08/31 06:14:33;;;;;;;6.13;3.87;;;;;;;18.60;59.13;95890.94;5066317;28;20209;-71
2023/08/31 06:16:58;;;;;;;12.40;4.40;;;;;;;17.87;60.79;95897.03;5066605;28;20209;-70
2023/08/31 06:19:24;;;;;;;21.00;5.10;;;;;;;17.21;63.50;95894.31;5066862;28;20534;-68
2023/08/31 06:21:49;;;;;;;11.03;4.73;;;;;;;17.08;64.34;95902.38;5066162;28;20173;-71
2023/08/31 06:24:15;;;;;;;6.10;4.33;;;;;;;17.08;64.25;95903.22;5066240;28;20200;-72
2023/08/31 06:26:40;;;;;;;5.10;3.80;;;;;;;16.86;64.59;95900.53;5069576;28;20193;-67
2023/08/31 06:29:05;;;;;;;6.40;5.50;;;;;;;16.40;65.00;95896.91;5078763;28;20178;-67
2023/08/31 06:31:31;;;;;;;6.10;3.90;;;;;;;16.24;65.55;95905.13;5076023;28;20166;-68
2023/08/31 06:33:56;;;;;;;9.80;3.50;;;;;;;16.13;65.44;95891.00;5075109;28;20200;-69
2023/08/31 06:36:23;;;;;;;12.10;3.90;;;;;;;15.88;66.16;95900.78;5086725;28;20303;-67
2023/08/31 06:38:49;;;;;;;7.70;4.83;;;;;;;15.90;66.63;95906.78;5088895;28;20290;-67
2023/08/31 06:41:15;;;;;;;10.47;4.30;;;;;;;15.97;66.36;95904.53;5088599;28;20447;-67
2023/08/31 06:43:41;;;;;;;18.93;4.67;;;;;;;16.09;66.88;95903.66;5087839;28;20205;-67
2023/08/31 06:46:06;;;;;;;14.00;3.57;;;;;;;16.08;65.98;95915.16;5079976;28;20431;-69
2023/08/31 06:48:31;;;;;;;19.20;4.63;;;;;;;16.17;65.98;95913.66;5079921;28;20161;-70
2023/08/31 06:50:57;;;;;;;19.73;6.30;;;;;;;16.27;66.06;95914.66;5088468;28;20622;-69
2023/08/31 06:53:22;;;;;;;8.57;4.43;;;;;;;16.51;65.49;95922.56;5088312;28;20283;-69
2023/08/31 06:55:48;;;;;;;35.23;7.03;;;;;;;16.38;65.94;95925.31;5088276;28;20277;-68
2023/08/31 06:58:13;;;;;;;6.33;3.43;;;;;;;16.29;66.15;95923.34;5088304;28;20299;-69
2023/08/31 07:00:39;;;;;;;6.07;4.00;;;;;;;15.94;67.68;95934.69;5088272;28;20181;-67
2023/08/31 07:03:06;;;;;;;5.27;4.10;;;;;;;15.91;67.93;95945.53;5088326;28;20575;-69
2023/08/31 07:05:35;;;;;;;5.53;3.30;;;;;;;15.85;68.13;95948.59;5088487;28;20197;-68
2023/08/31 07:08:01;;;;;;;45.10;6.17;;;;;;;15.92;68.12;95944.59;5070283;28;20426;-66
2023/08/31 07:10:27;;;;;;;12.17;3.93;;;;;;;15.77;68.36;95935.94;5088355;28;20805;-65
2023/08/31 07:12:52;;;;;;;9.73;4.10;;;;;;;15.86;68.57;95929.97;5088121;28;20521;-68
2023/08/31 07:15:17;;;;;;;9.50;3.63;;;;;;;15.89;68.13;95931.56;5087368;28;20217;-69
2023/08/31 07:17:43;;;;;;;15.80;3.83;;;;;;;16.51;65.96;95936.69;5087898;28;20665;-69
2023/08/31 07:20:09;;;;;;;9.17;4.40;;;;;;;16.72;64.45;95941.28;5088469;28;20948;-68
2023/08/31 07:22:35;;;;;;;7.40;4.40;;;;;;;16.55;64.76;95954.97;5088787;28;20170;-68
2023/08/31 07:25:00;;;;;;;8.20;4.23;;;;;;;16.38;65.13;95959.72;5089478;28;20432;-68
2023/08/31 07:27:25;;;;;;;10.40;4.20;;;;;;;16.34;65.55;95957.41;5088917;28;20210;-66
2023/08/31 07:29:54;;;;;;;16.97;5.00;;;;;;;16.37;65.38;95971.28;5077765;28;20174;-67
2023/08/31 07:32:19;;;;;;;19.13;4.63;;;;;;;16.29;64.67;95965.69;5067050;28;20253;-67
2023/08/31 07:34:45;;;;;;;11.03;4.20;;;;;;;16.19;64.97;95960.25;5066500;28;20433;-67
2023/08/31 07:37:10;;;;;;;6.67;3.90;;;;;;;16.22;65.21;95960.00;5066931;28;20194;-68
2023/08/31 07:39:36;;;;;;;7.43;3.67;;;;;;;16.43;64.55;95960.22;5066823;28;20286;-68
2023/08/31 07:42:01;;;;;;;11.70;4.07;;;;;;;16.52;65.08;95969.28;5067178;28;20162;-68
2023/08/31 07:44:27;;;;;;;14.20;3.90;;;;;;;16.55;63.79;95968.22;5066765;28;20284;-67
2023/08/31 07:46:52;;;;;;;9.80;3.83;;;;;;;16.80;63.73;95956.66;5067084;28;20177;-70
2023/08/31 07:49:18;;;;;;;15.63;4.37;;;;;;;17.37;62.17;95963.75;5066766;28;20674;-67
2023/08/31 07:51:44;;;;;;;7.80;4.10;;;;;;;18.23;59.11;95972.84;5066678;28;20170;-68
2023/08/31 07:54:09;;;;;;;9.77;3.57;;;;;;;18.74;57.05;95966.88;5066253;28;20722;-69
2023/08/31 07:56:34;;;;;;;13.40;4.47;;;;;;;19.12;55.75;95967.31;5066365;28;20209;-67
2023/08/31 07:59:00;;;;;;;12.20;4.37;;;;;;;18.51;57.24;95967.94;5066507;28;20176;-69
2023/08/31 08:01:25;;;;;;;20.03;5.00;;;;;;;18.04;58.98;95980.63;5066721;28;20194;-69
2023/08/31 08:03:50;;;;;;;10.83;3.77;;;;;;;17.78;59.36;95986.16;5066289;28;20189;-67
2023/08/31 08:06:16;;;;;;;8.57;3.67;;;;;;;17.53;59.21;95990.75;5066553;28;20158;-68
2023/08/31 08:08:41;;;;;;;13.43;3.90;;;;;;;17.44;59.58;95994.13;5066897;28;20212;-69
2023/08/31 08:11:06;;;;;;;7.37;3.00;;;;;;;17.32;60.17;96003.03;5067054;28;20178;-67
2023/08/31 08:13:32;;;;;;;14.37;3.80;;;;;;;17.29;60.56;95997.94;5066558;28;20173;-68
2023/08/31 08:15:57;;;;;;;15.47;4.70;;;;;;;17.19;61.13;95996.97;5066929;28;20210;-70
2023/08/31 08:18:23;;;;;;;7.93;4.03;;;;;;;17.22;60.98;96007.34;5066774;28;20184;-68
2023/08/31 08:20:50;;;;;;;10.60;3.73;;;;;;;17.20;60.53;95999.53;5066519;28;20166;-69
2023/08/31 08:23:16;;;;;;;17.77;4.17;;;;;;;17.06;60.30;96003.22;5066069;28;20162;-69
2023/08/31 08:25:41;;;;;;;5.50;3.17;;;;;;;17.09;60.47;96002.16;5048114;28;20439;-68
2023/08/31 08:28:06;;;;;;;11.00;4.10;;;;;;;17.33;59.22;95999.41;5048142;28;20937;-68
2023/08/31 08:30:32;;;;;;;3.80;2.50;;;;;;;17.41;57.29;96005.00;5065249;28;20177;-69
2023/08/31 08:32:58;;;;;;;4.30;2.60;;;;;;;17.35;58.12;96013.41;5065904;28;20169;-71
2023/08/31 08:35:24;;;;;;;4.90;2.77;;;;;;;17.41;58.05;96006.78;5066079;28;20202;-69
2023/08/31 08:37:49;;;;;;;11.00;2.87;;;;;;;17.50;56.35;96016.66;5066909;28;20462;-69
2023/08/31 08:40:15;;;;;;;7.93;4.00;;;;;;;17.72;55.83;95998.13;5066029;28;20186;-69
2023/08/31 08:42:46;;;;;;;6.43;3.23;;;;;;;17.71;51.72;96000.88;5066590;28;20162;-67
2023/08/31 08:45:15;;;;;;;7.43;3.13;;;;;;;17.87;49.59;96003.22;5066497;28;20186;-67
2023/08/31 08:47:43;;;;;;;7.03;2.40;;;;;;;17.98;48.34;96009.34;5066460;28;20399;-69
2023/08/31 08:50:10;;;;;;;13.57;3.50;;;;;;;17.92;48.31;96006.34;5066947;28;20932;-69
2023/08/31 08:52:36;;;;;;;12.73;3.10;;;;;;;18.04;47.44;96017.78;5066625;28;20889;-68
2023/08/31 08:55:02;;;;;;;9.20;3.33;;;;;;;17.95;46.03;96006.09;5066185;28;20516;-66
2023/08/31 08:57:28;;;;;;;16.43;3.77;;;;;;;18.14;45.63;96010.75;5065916;28;20177;-68
2023/08/31 08:59:53;;;;;;;23.87;5.03;;;;;;;18.26;44.12;96011.59;5065997;28;20408;-68
2023/08/31 09:02:19;;;;;;;25.70;4.13;;;;;;;18.51;44.42;96010.44;5066811;28;20294;-69
2023/08/31 09:04:44;;;;;;;7.53;2.57;;;;;;;19.30;42.98;96012.75;5068971;28;20194;-68
2023/08/31 09:07:09;;;;;;;9.13;2.80;;;;;;;19.25;41.91;96006.03;5069852;28;20178;-68
2023/08/31 09:09:52;;;;;;;4.97;2.43;;;;;;;19.13;40.68;96014.19;5066954;28;20174;-68
2023/08/31 09:12:18;;;;;;;10.13;2.77;;;;;;;19.81;40.04;96009.28;5066435;28;20178;-70
2023/08/31 09:14:43;;;;;;;8.63;3.10;;;;;;;19.44;38.85;96026.59;5073542;28;20436;-69
2023/08/31 09:17:09;;;;;;;5.30;2.63;;;;;;;18.97;39.17;96020.81;5067834;28;20198;-69
2023/08/31 09:19:34;;;;;;;22.20;4.23;;;;;;;19.07;39.29;96018.22;5069100;28;20255;-68
2023/08/31 09:22:00;;;;;;;3.40;2.03;;;;;;;19.12;39.50;96029.31;5070522;28;20174;-68
2023/08/31 09:24:25;;;;;;;4.20;1.97;;;;;;;18.83;39.81;96021.97;5074630;28;20190;-68
2023/08/31 09:26:56;;;;;;;12.30;2.90;;;;;;;18.88;40.24;96020.75;5074563;28;20269;-66
2023/08/31 09:29:22;;;;;;;5.10;2.50;;;;;;;18.96;38.02;96034.22;5062015;28;20179;-68
2023/08/31 09:31:48;;;;;;;7.27;2.57;;;;;;;19.03;38.44;96027.44;5047349;28;20451;-70
2023/08/31 09:34:17;;;;;;;33.73;5.70;;;;;;;19.09;38.85;96029.59;5046728;28;20277;-69
2023/08/31 09:36:43;;;;;;;7.40;2.50;;;;;;;19.00;39.56;96025.03;5046774;28;20199;-68
2023/08/31 09:39:09;;;;;;;5.63;3.83;;;;;;;19.38;38.53;96018.28;5046610;28;20959;-68
2023/08/31 09:41:35;;;;;;;4.20;2.60;;;;;;;19.82;37.43;96014.50;5048920;28;20412;-68
2023/08/31 09:44:17;;;;;;;5.60;2.40;;;;;;;19.78;37.51;96013.06;5050595;28;20195;-67
2023/08/31 09:46:43;;;;;;;4.90;2.50;;;;;;;20.24;36.66;96014.31;5051984;28;20424;-68
2023/08/31 09:49:10;;;;;;;4.97;2.60;;;;;;;20.35;36.77;96018.72;5050944;28;20412;-68
2023/08/31 09:51:41;;;;;;;4.23;2.50;;;;;;;20.11;36.79;96020.91;5051109;28;21092;-68
2023/08/31 09:54:09;;;;;;;6.83;3.03;;;;;;;20.27;36.60;96018.56;5050795;28;20425;-68
2023/08/31 09:56:36;;;;;;;4.47;2.27;;;;;;;19.96;36.72;96029.28;5051904;28;20816;-70
2023/08/31 09:59:02;;;;;;;7.23;2.77;;;;;;;19.95;37.30;96034.72;5051692;28;20436;-67
2023/08/31 10:01:28;;;;;;;11.30;3.50;;;;;;;20.49;36.50;96036.13;5051197;28;20724;-68
2023/08/31 10:03:53;;;;;;;14.80;4.00;;;;;;;20.82;35.65;96024.28;5051463;28;20191;-68
2023/08/31 10:06:21;;;;;;;11.27;3.33;;;;;;;21.15;34.73;96022.16;5051553;28;20159;-67
2023/08/31 10:08:47;;;;;;;8.37;2.97;;;;;;;21.28;34.65;96022.72;5051065;28;20199;-68
2023/08/31 10:11:14;;;;;;;7.10;2.27;;;;;;;21.46;33.73;96025.53;5050068;28;20444;-67
2023/08/31 10:13:41;;;;;;;5.97;2.83;;;;;;;21.26;33.92;96032.69;5050458;28;20198;-69
2023/08/31 10:16:06;;;;;;;7.27;2.73;;;;;;;20.93;33.33;96034.81;5051118;28;20456;-68
2023/08/31 10:18:34;;;;;;;11.20;2.93;;;;;;;21.14;32.94;96033.81;5050924;28;20429;-69
2023/08/31 10:21:01;;;;;;;21.70;4.60;;;;;;;21.37;31.64;96031.69;5050637;28;20588;-68
2023/08/31 10:23:27;;;;;;;8.13;2.67;;;;;;;21.34;31.61;96027.47;5049908;28;20421;-67
2023/08/31 10:25:53;;;;;;;5.33;2.63;;;;;;;21.12;31.59;96038.47;5049957;28;20526;-68
2023/08/31 10:28:24;;;;;;;7.10;2.43;;;;;;;21.31;32.56;96026.94;5049544;28;20417;-68
2023/08/31 10:31:05;;;;;;;6.93;2.80;;;;;;;21.42;32.10;96029.47;5067108;28;20420;-69
2023/08/31 10:33:32;;;;;;;6.93;3.40;;;;;;;21.45;32.44;96029.19;5068715;28;20444;-67
2023/08/31 10:35:58;;;;;;;7.63;3.27;;;;;;;21.64;32.41;96027.44;5068430;28;20460;-69
2023/08/31 10:38:25;;;;;;;3.90;2.30;;;;;;;21.54;32.04;96017.66;5068040;28;20486;-69
2023/08/31 10:41:24;;;;;;;38.60;5.70;;;;;;;21.52;32.14;96018.75;5068235;28;20216;-67
2023/08/31 10:43:59;;;;;;;7.13;2.80;;;;;;;21.92;31.57;96017.66;5023515;28;20522;-69
2023/08/31 10:46:43;;;;;;;10.53;3.27;;;;;;;21.88;30.53;96014.44;5068104;28;20405;-67
2023/08/31 10:49:11;;;;;;;17.83;4.20;;;;;;;21.75;31.76;96021.94;5068110;28;20967;-67
2023/08/31 10:51:39;;;;;;;8.43;2.77;;;;;;;21.70;30.75;96027.69;5068097;28;20405;-68
2023/08/31 10:54:04;;;;;;;5.47;3.20;;;;;;;21.65;30.99;96032.66;5066687;28;20517;-67
2023/08/31 10:56:30;;;;;;;9.00;3.90;;;;;;;21.47;30.99;96026.34;5068009;28;20509;-68
2023/08/31 10:58:59;;;;;;;6.77;2.80;;;;;;;21.64;31.36;96020.28;5057686;28;20187;-68
2023/08/31 11:01:53;;;;;;;13.77;2.80;;;;;;;21.93;30.71;96014.00;5047746;28;20173;-68
2023/08/31 11:04:20;;;;;;;9.70;2.80;;;;;;;22.12;30.76;96023.75;5065175;28;20413;-67
2023/08/31 11:06:45;;;;;;;7.40;2.43;;;;;;;21.89;30.33;96025.97;5067463;28;20405;-66
2023/08/31 11:09:19;;;;;;;7.40;2.37;;;;;;;21.98;30.18;96019.75;5067206;28;20745;-68
2023/08/31 11:11:45;;;;;;;9.30;2.50;;;;;;;21.93;30.67;96024.69;5067271;28;20208;-69
2023/08/31 11:14:10;;;;;;;8.70;3.60;;;;;;;21.84;30.56;96022.91;5067095;28;20527;-70
2023/08/31 11:16:38;;;;;;;6.90;2.93;;;;;;;22.10;30.71;96021.22;5067254;28;20193;-68
2023/08/31 11:19:04;;;;;;;10.73;3.70;;;;;;;21.86;30.96;96020.91;5067089;28;20174;-68
2023/08/31 11:21:31;;;;;;;12.67;3.30;;;;;;;21.54;30.36;96012.31;5067160;28;21000;-69
2023/08/31 11:23:58;;;;;;;4.53;2.53;;;;;;;21.29;31.36;96021.72;5066439;28;20424;-68
2023/08/31 11:26:25;;;;;;;5.00;2.17;;;;;;;21.44;31.12;96018.66;5060905;28;20409;-67
2023/08/31 11:28:51;;;;;;;5.53;2.60;;;;;;;21.40;31.01;96017.25;5067854;28;20920;-68
2023/08/31 11:31:26;;;;;;;4.33;2.47;;;;;;;21.45;30.61;96012.31;5066923;28;20419;-66
2023/08/31 11:33:53;;;;;;;2.77;2.13;;;;;;;20.98;31.28;96021.06;5046982;28;20178;-66